Portada
METAR-TAF:

METAR-TAF

Aeropuertos :

Bonaire, Antillas Neerlandesas

Aeropuerto Internacional Flamingo

latitud: 12-09N, longitud: 068-17W, altitud: 6 m

Observación

El informe se hizo hace 1 hora y 6 minutos, a las 00:55 UTC
Viento 13 kt del este
Temperatura 28°C
Humedad 79%
Presión 1013 hPa
Visibilidad 10 km o más

METAR: TNCB 280055Z AUTO 08013KT 9999 FEW018/// 28/24 Q1013

Hora: 22:01 (02:01 UTC)

Pronóstico

El informe se hizo hace 3 horas y 19 minutos, a las 22:42 UTC
Pronóstico válido del 28 a las 00 UTC al 29 a las 06 UTC
Viento 15 kt del este
Visibilidad 10 km o más
Nubes dispersas a una altura de 2000 ft
Probabilidad 40% :
Temporalmente
del 29 a las 03 UTC al 29 a las 06 UTC
Visibilidad: 6000 m
Nubes dispersas a una altura de 2000 ft, Cumulonimbus.
chaparrones de lluvia

TAF: TNCB 272242Z 2800/2906 09015KT 9999 SCT020 PROB40 TEMPO 2903/2906 6000 SHRA SCT020CB

Observaciones y pronósticos meteorológicos de más de 4000 aeropuertos (mensajes METAR y TAF).

Los puntos amarillos y rojos representan las estaciones disponibles.

Ponga el ratón en el punto deseado para ver el nombre de la estación.

Haga clic para ver las observaciones y los pronósticos meteorológicos.

Para cambiar el mapa : haga clic en los botones verdes con una cruz de color negro para hacer un zoom, en el botón verde con un guión para alejar o en las flechas verdes para mapas adyacentes.


METAR-TAF: